sensor_id;sensor_type;location;lat;lon;timestamp;temperature;humidity
16160;DHT22;8185;57.818;15.224;2022-07-23T00:01:46;14.70;99.90
16160;DHT22;8185;57.818;15.224;2022-07-23T00:04:13;14.70;99.90
16160;DHT22;8185;57.818;15.224;2022-07-23T00:06:41;14.60;99.90
16160;DHT22;8185;57.818;15.224;2022-07-23T00:09:08;14.60;99.90
16160;DHT22;8185;57.818;15.224;2022-07-23T00:11:35;14.50;99.90
16160;DHT22;8185;57.818;15.224;2022-07-23T00:14:02;14.50;99.90
16160;DHT22;8185;57.818;15.224;2022-07-23T00:16:30;14.50;99.90
16160;DHT22;8185;57.818;15.224;2022-07-23T00:18:58;14.50;99.90
16160;DHT22;8185;57.818;15.224;2022-07-23T00:21:28;14.50;99.90
16160;DHT22;8185;57.818;15.224;2022-07-23T00:23:55;14.30;99.90
16160;DHT22;8185;57.818;15.224;2022-07-23T00:26:22;14.50;99.90
16160;DHT22;8185;57.818;15.224;2022-07-23T00:28:50;14.40;99.90
16160;DHT22;8185;57.818;15.224;2022-07-23T00:31:17;14.40;99.90
16160;DHT22;8185;57.818;15.224;2022-07-23T00:33:44;14.40;99.90
16160;DHT22;8185;57.818;15.224;2022-07-23T00:36:13;14.40;99.90
16160;DHT22;8185;57.818;15.224;2022-07-23T00:38:40;14.30;99.90
16160;DHT22;8185;57.818;15.224;2022-07-23T00:41:07;14.30;99.90
16160;DHT22;8185;57.818;15.224;2022-07-23T00:43:35;14.30;99.90
16160;DHT22;8185;57.818;15.224;2022-07-23T00:46:02;14.20;99.90
16160;DHT22;8185;57.818;15.224;2022-07-23T00:48:29;14.20;99.90
16160;DHT22;8185;57.818;15.224;2022-07-23T00:50:57;14.20;99.90
16160;DHT22;8185;57.818;15.224;2022-07-23T00:53:25;14.10;99.90
16160;DHT22;8185;57.818;15.224;2022-07-23T00:55:53;14.10;99.90
16160;DHT22;8185;57.818;15.224;2022-07-23T00:58:20;14.10;99.90
16160;DHT22;8185;57.818;15.224;2022-07-23T01:00:47;14.10;99.90
16160;DHT22;8185;57.818;15.224;2022-07-23T01:03:15;14.10;99.90
16160;DHT22;8185;57.818;15.224;2022-07-23T01:05:42;14.10;99.90
16160;DHT22;8185;57.818;15.224;2022-07-23T01:08:09;14.10;99.90
16160;DHT22;8185;57.818;15.224;2022-07-23T01:10:38;14.10;99.90
16160;DHT22;8185;57.818;15.224;2022-07-23T01:13:08;14.20;99.90
16160;DHT22;8185;57.818;15.224;2022-07-23T01:15:37;14.10;99.90
16160;DHT22;8185;57.818;15.224;2022-07-23T01:18:05;14.10;99.90
16160;DHT22;8185;57.818;15.224;2022-07-23T01:20:34;14.10;99.90
16160;DHT22;8185;57.818;15.224;2022-07-23T01:23:02;14.10;99.90
16160;DHT22;8185;57.818;15.224;2022-07-23T01:25:30;14.10;99.90
16160;DHT22;8185;57.818;15.224;2022-07-23T01:27:57;14.10;99.90
16160;DHT22;8185;57.818;15.224;2022-07-23T01:30:24;14.10;99.90
16160;DHT22;8185;57.818;15.224;2022-07-23T01:32:51;14.10;99.90
16160;DHT22;8185;57.818;15.224;2022-07-23T01:35:19;14.10;99.90
16160;DHT22;8185;57.818;15.224;2022-07-23T01:37:46;14.10;99.90
16160;DHT22;8185;57.818;15.224;2022-07-23T01:40:14;14.20;99.90
16160;DHT22;8185;57.818;15.224;2022-07-23T01:42:42;14.20;99.90
16160;DHT22;8185;57.818;15.224;2022-07-23T01:45:10;14.20;99.90
16160;DHT22;8185;57.818;15.224;2022-07-23T01:47:37;14.10;99.90
16160;DHT22;8185;57.818;15.224;2022-07-23T01:50:05;14.20;99.90
16160;DHT22;8185;57.818;15.224;2022-07-23T01:52:32;14.20;99.90
16160;DHT22;8185;57.818;15.224;2022-07-23T01:55:00;14.20;99.90
16160;DHT22;8185;57.818;15.224;2022-07-23T01:57:28;14.20;99.90
16160;DHT22;8185;57.818;15.224;2022-07-23T01:59:55;14.20;99.90
16160;DHT22;8185;57.818;15.224;2022-07-23T02:02:23;14.20;99.90
16160;DHT22;8185;57.818;15.224;2022-07-23T02:04:50;14.20;99.90
16160;DHT22;8185;57.818;15.224;2022-07-23T02:07:17;14.20;99.90
16160;DHT22;8185;57.818;15.224;2022-07-23T02:09:44;14.20;99.90
16160;DHT22;8185;57.818;15.224;2022-07-23T02:12:12;14.30;99.90
16160;DHT22;8185;57.818;15.224;2022-07-23T02:14:40;14.30;99.90
16160;DHT22;8185;57.818;15.224;2022-07-23T02:17:07;14.30;99.90
16160;DHT22;8185;57.818;15.224;2022-07-23T02:19:35;14.30;99.90
16160;DHT22;8185;57.818;15.224;2022-07-23T02:22:02;14.30;99.90
16160;DHT22;8185;57.818;15.224;2022-07-23T02:24:29;14.30;99.90
16160;DHT22;8185;57.818;15.224;2022-07-23T02:26:57;14.40;99.90
16160;DHT22;8185;57.818;15.224;2022-07-23T02:29:24;14.40;99.90
16160;DHT22;8185;57.818;15.224;2022-07-23T02:31:53;14.40;99.90
16160;DHT22;8185;57.818;15.224;2022-07-23T02:34:20;14.40;99.90
16160;DHT22;8185;57.818;15.224;2022-07-23T02:36:47;14.30;99.90
16160;DHT22;8185;57.818;15.224;2022-07-23T02:39:15;14.30;99.90
16160;DHT22;8185;57.818;15.224;2022-07-23T02:41:42;14.40;99.90
16160;DHT22;8185;57.818;15.224;2022-07-23T02:44:09;14.40;99.90
16160;DHT22;8185;57.818;15.224;2022-07-23T02:46:36;14.40;99.90
16160;DHT22;8185;57.818;15.224;2022-07-23T02:49:05;14.40;99.90
16160;DHT22;8185;57.818;15.224;2022-07-23T02:51:32;14.40;99.90
16160;DHT22;8185;57.818;15.224;2022-07-23T02:53:59;14.50;99.90
16160;DHT22;8185;57.818;15.224;2022-07-23T02:56:27;14.50;99.90
16160;DHT22;8185;57.818;15.224;2022-07-23T02:58:54;14.50;99.90
16160;DHT22;8185;57.818;15.224;2022-07-23T03:01:21;14.50;99.90
16160;DHT22;8185;57.818;15.224;2022-07-23T03:03:49;14.50;99.90
16160;DHT22;8185;57.818;15.224;2022-07-23T03:06:18;14.50;99.90
16160;DHT22;8185;57.818;15.224;2022-07-23T03:08:45;14.60;99.90
16160;DHT22;8185;57.818;15.224;2022-07-23T03:11:12;14.50;99.90
16160;DHT22;8185;57.818;15.224;2022-07-23T03:13:40;14.60;99.90
16160;DHT22;8185;57.818;15.224;2022-07-23T03:16:07;14.60;99.90
16160;DHT22;8185;57.818;15.224;2022-07-23T03:18:35;14.60;99.90
16160;DHT22;8185;57.818;15.224;2022-07-23T03:21:02;14.60;99.90
16160;DHT22;8185;57.818;15.224;2022-07-23T03:23:31;14.60;99.90
16160;DHT22;8185;57.818;15.224;2022-07-23T03:25:58;14.70;99.90
16160;DHT22;8185;57.818;15.224;2022-07-23T03:28:25;14.70;99.90
16160;DHT22;8185;57.818;15.224;2022-07-23T03:30:53;14.70;99.90
16160;DHT22;8185;57.818;15.224;2022-07-23T03:33:20;14.70;99.90
16160;DHT22;8185;57.818;15.224;2022-07-23T03:35:48;14.70;99.90
16160;DHT22;8185;57.818;15.224;2022-07-23T03:38:16;14.80;99.90
16160;DHT22;8185;57.818;15.224;2022-07-23T03:40:44;14.80;99.90
16160;DHT22;8185;57.818;15.224;2022-07-23T03:43:12;14.80;99.90
16160;DHT22;8185;57.818;15.224;2022-07-23T03:45:39;14.80;99.90
16160;DHT22;8185;57.818;15.224;2022-07-23T03:48:07;14.80;99.90
16160;DHT22;8185;57.818;15.224;2022-07-23T03:50:34;14.90;99.90
16160;DHT22;8185;57.818;15.224;2022-07-23T03:53:03;14.90;99.90
16160;DHT22;8185;57.818;15.224;2022-07-23T03:55:30;14.90;99.90
16160;DHT22;8185;57.818;15.224;2022-07-23T03:57:59;15.00;99.90
16160;DHT22;8185;57.818;15.224;2022-07-23T04:00:26;15.00;99.90
16160;DHT22;8185;57.818;15.224;2022-07-23T04:02:54;15.00;99.90
16160;DHT22;8185;57.818;15.224;2022-07-23T04:05:21;15.00;99.90
16160;DHT22;8185;57.818;15.224;2022-07-23T04:07:48;15.10;99.90
16160;DHT22;8185;57.818;15.224;2022-07-23T04:10:17;15.00;99.90
16160;DHT22;8185;57.818;15.224;2022-07-23T04:12:45;15.00;99.90
16160;DHT22;8185;57.818;15.224;2022-07-23T04:15:14;15.10;99.90
16160;DHT22;8185;57.818;15.224;2022-07-23T04:17:41;15.10;99.90
16160;DHT22;8185;57.818;15.224;2022-07-23T04:20:10;15.10;99.90
16160;DHT22;8185;57.818;15.224;2022-07-23T04:22:38;15.10;99.90
16160;DHT22;8185;57.818;15.224;2022-07-23T04:25:06;15.10;99.90
16160;DHT22;8185;57.818;15.224;2022-07-23T04:27:33;15.20;99.90
16160;DHT22;8185;57.818;15.224;2022-07-23T04:30:00;15.20;99.90
16160;DHT22;8185;57.818;15.224;2022-07-23T04:32:29;15.20;99.90
16160;DHT22;8185;57.818;15.224;2022-07-23T04:34:56;15.20;99.90
16160;DHT22;8185;57.818;15.224;2022-07-23T04:37:23;15.20;99.90
16160;DHT22;8185;57.818;15.224;2022-07-23T04:39:51;15.20;99.90
16160;DHT22;8185;57.818;15.224;2022-07-23T04:42:18;15.20;99.90
16160;DHT22;8185;57.818;15.224;2022-07-23T04:44:45;15.20;99.90
16160;DHT22;8185;57.818;15.224;2022-07-23T04:47:12;15.20;99.90
16160;DHT22;8185;57.818;15.224;2022-07-23T04:49:41;15.20;99.90
16160;DHT22;8185;57.818;15.224;2022-07-23T04:52:08;15.20;99.90
16160;DHT22;8185;57.818;15.224;2022-07-23T04:54:35;15.20;99.90
16160;DHT22;8185;57.818;15.224;2022-07-23T04:57:03;15.10;99.90
16160;DHT22;8185;57.818;15.224;2022-07-23T04:59:30;15.20;99.90
16160;DHT22;8185;57.818;15.224;2022-07-23T05:01:57;15.20;99.90
16160;DHT22;8185;57.818;15.224;2022-07-23T05:04:24;15.30;99.90
16160;DHT22;8185;57.818;15.224;2022-07-23T05:06:53;15.30;99.90
16160;DHT22;8185;57.818;15.224;2022-07-23T05:09:20;15.20;99.90
16160;DHT22;8185;57.818;15.224;2022-07-23T05:11:47;15.20;99.90
16160;DHT22;8185;57.818;15.224;2022-07-23T05:14:15;15.20;99.90
16160;DHT22;8185;57.818;15.224;2022-07-23T05:16:42;15.20;99.90
16160;DHT22;8185;57.818;15.224;2022-07-23T05:19:09;15.20;99.90
16160;DHT22;8185;57.818;15.224;2022-07-23T05:21:36;15.20;99.90
16160;DHT22;8185;57.818;15.224;2022-07-23T05:24:06;15.20;99.90
16160;DHT22;8185;57.818;15.224;2022-07-23T05:26:33;15.20;99.90
16160;DHT22;8185;57.818;15.224;2022-07-23T05:29:01;15.20;99.90
16160;DHT22;8185;57.818;15.224;2022-07-23T05:31:28;15.20;99.90
16160;DHT22;8185;57.818;15.224;2022-07-23T05:33:55;15.20;99.90
16160;DHT22;8185;57.818;15.224;2022-07-23T05:36:22;15.20;99.90
16160;DHT22;8185;57.818;15.224;2022-07-23T05:38:50;15.30;99.90
16160;DHT22;8185;57.818;15.224;2022-07-23T05:41:18;15.30;99.90
16160;DHT22;8185;57.818;15.224;2022-07-23T05:43:46;15.30;99.90
16160;DHT22;8185;57.818;15.224;2022-07-23T05:46:13;15.30;99.90
16160;DHT22;8185;57.818;15.224;2022-07-23T05:48:40;15.30;99.90
16160;DHT22;8185;57.818;15.224;2022-07-23T05:51:08;15.30;99.90
16160;DHT22;8185;57.818;15.224;2022-07-23T05:53:35;15.30;99.90
16160;DHT22;8185;57.818;15.224;2022-07-23T05:56:03;15.40;99.90
16160;DHT22;8185;57.818;15.224;2022-07-23T05:58:32;15.50;99.90
16160;DHT22;8185;57.818;15.224;2022-07-23T06:00:59;15.60;99.90
16160;DHT22;8185;57.818;15.224;2022-07-23T06:03:26;15.70;99.90
16160;DHT22;8185;57.818;15.224;2022-07-23T06:05:54;15.80;99.90
16160;DHT22;8185;57.818;15.224;2022-07-23T06:08:21;15.80;99.90
16160;DHT22;8185;57.818;15.224;2022-07-23T06:10:48;15.60;99.90
16160;DHT22;8185;57.818;15.224;2022-07-23T06:13:17;15.60;99.90
16160;DHT22;8185;57.818;15.224;2022-07-23T06:15:46;15.60;99.90
16160;DHT22;8185;57.818;15.224;2022-07-23T06:18:14;15.60;99.90
16160;DHT22;8185;57.818;15.224;2022-07-23T06:20:41;15.80;99.90
16160;DHT22;8185;57.818;15.224;2022-07-23T06:23:08;15.90;99.90
16160;DHT22;8185;57.818;15.224;2022-07-23T06:25:36;16.10;99.90
16160;DHT22;8185;57.818;15.224;2022-07-23T06:28:03;16.20;99.90
16160;DHT22;8185;57.818;15.224;2022-07-23T06:30:30;16.30;99.90
16160;DHT22;8185;57.818;15.224;2022-07-23T06:32:59;16.30;99.90
16160;DHT22;8185;57.818;15.224;2022-07-23T06:35:26;16.30;99.90
16160;DHT22;8185;57.818;15.224;2022-07-23T06:37:54;16.30;99.90
16160;DHT22;8185;57.818;15.224;2022-07-23T06:40:21;16.30;99.90
16160;DHT22;8185;57.818;15.224;2022-07-23T06:42:48;16.30;99.90
16160;DHT22;8185;57.818;15.224;2022-07-23T06:45:15;16.30;99.90
16160;DHT22;8185;57.818;15.224;2022-07-23T06:47:43;16.30;99.90
16160;DHT22;8185;57.818;15.224;2022-07-23T06:50:11;16.20;99.90
16160;DHT22;8185;57.818;15.224;2022-07-23T06:52:38;16.30;99.90
16160;DHT22;8185;57.818;15.224;2022-07-23T06:55:06;16.30;99.90
16160;DHT22;8185;57.818;15.224;2022-07-23T06:57:34;16.50;99.90
16160;DHT22;8185;57.818;15.224;2022-07-23T07:00:01;16.40;99.90
16160;DHT22;8185;57.818;15.224;2022-07-23T07:02:28;16.50;99.90
16160;DHT22;8185;57.818;15.224;2022-07-23T07:04:55;16.60;99.90
16160;DHT22;8185;57.818;15.224;2022-07-23T07:07:25;16.70;99.90
16160;DHT22;8185;57.818;15.224;2022-07-23T07:09:52;16.60;99.90
16160;DHT22;8185;57.818;15.224;2022-07-23T07:12:19;16.60;99.90
16160;DHT22;8185;57.818;15.224;2022-07-23T07:14:46;16.40;99.90
16160;DHT22;8185;57.818;15.224;2022-07-23T07:17:14;16.30;99.90
16160;DHT22;8185;57.818;15.224;2022-07-23T07:19:41;16.30;99.90
16160;DHT22;8185;57.818;15.224;2022-07-23T07:22:08;16.20;99.90
16160;DHT22;8185;57.818;15.224;2022-07-23T07:24:37;16.20;99.90
16160;DHT22;8185;57.818;15.224;2022-07-23T07:27:04;16.30;99.90
16160;DHT22;8185;57.818;15.224;2022-07-23T07:29:32;16.20;99.90
16160;DHT22;8185;57.818;15.224;2022-07-23T07:31:59;16.10;99.90
16160;DHT22;8185;57.818;15.224;2022-07-23T07:34:26;16.20;99.90
16160;DHT22;8185;57.818;15.224;2022-07-23T07:36:54;16.20;99.90
16160;DHT22;8185;57.818;15.224;2022-07-23T07:39:21;16.20;99.90
16160;DHT22;8185;57.818;15.224;2022-07-23T07:41:50;16.10;99.90
16160;DHT22;8185;57.818;15.224;2022-07-23T07:44:17;15.80;99.90
16160;DHT22;8185;57.818;15.224;2022-07-23T07:46:44;15.90;99.90
16160;DHT22;8185;57.818;15.224;2022-07-23T07:49:11;15.90;99.90
16160;DHT22;8185;57.818;15.224;2022-07-23T07:51:39;16.10;99.90
16160;DHT22;8185;57.818;15.224;2022-07-23T07:54:06;16.30;99.90
16160;DHT22;8185;57.818;15.224;2022-07-23T07:56:33;16.40;99.90
16160;DHT22;8185;57.818;15.224;2022-07-23T07:59:02;16.30;99.90
16160;DHT22;8185;57.818;15.224;2022-07-23T08:01:29;16.30;99.90
16160;DHT22;8185;57.818;15.224;2022-07-23T08:03:56;16.40;99.90
16160;DHT22;8185;57.818;15.224;2022-07-23T08:06:24;16.50;99.90
16160;DHT22;8185;57.818;15.224;2022-07-23T08:08:51;16.30;99.90
16160;DHT22;8185;57.818;15.224;2022-07-23T08:11:18;16.40;99.90
16160;DHT22;8185;57.818;15.224;2022-07-23T08:13:46;16.30;99.90
16160;DHT22;8185;57.818;15.224;2022-07-23T08:16:14;16.00;99.90
16160;DHT22;8185;57.818;15.224;2022-07-23T08:18:42;15.80;99.90
16160;DHT22;8185;57.818;15.224;2022-07-23T08:21:09;15.60;99.90
16160;DHT22;8185;57.818;15.224;2022-07-23T08:23:37;15.60;99.90
16160;DHT22;8185;57.818;15.224;2022-07-23T08:26:04;15.60;99.90
16160;DHT22;8185;57.818;15.224;2022-07-23T08:28:31;15.60;99.90
16160;DHT22;8185;57.818;15.224;2022-07-23T08:30:59;15.40;99.90
16160;DHT22;8185;57.818;15.224;2022-07-23T08:33:28;15.30;99.90
16160;DHT22;8185;57.818;15.224;2022-07-23T08:35:55;15.30;99.90
16160;DHT22;8185;57.818;15.224;2022-07-23T08:38:22;15.30;99.90
16160;DHT22;8185;57.818;15.224;2022-07-23T08:40:52;15.20;99.90
16160;DHT22;8185;57.818;15.224;2022-07-23T08:43:22;15.30;99.90
16160;DHT22;8185;57.818;15.224;2022-07-23T08:45:51;15.30;99.90
16160;DHT22;8185;57.818;15.224;2022-07-23T08:48:20;15.40;99.90
16160;DHT22;8185;57.818;15.224;2022-07-23T08:50:51;15.40;99.90
16160;DHT22;8185;57.818;15.224;2022-07-23T08:53:20;15.40;99.90
16160;DHT22;8185;57.818;15.224;2022-07-23T08:55:49;15.60;99.90
16160;DHT22;8185;57.818;15.224;2022-07-23T08:58:17;15.50;99.90
16160;DHT22;8185;57.818;15.224;2022-07-23T09:00:45;15.70;99.90
16160;DHT22;8185;57.818;15.224;2022-07-23T09:03:16;15.80;99.90
16160;DHT22;8185;57.818;15.224;2022-07-23T09:05:44;16.00;99.90
16160;DHT22;8185;57.818;15.224;2022-07-23T09:08:14;16.10;99.90
16160;DHT22;8185;57.818;15.224;2022-07-23T09:10:51;16.20;99.90
16160;DHT22;8185;57.818;15.224;2022-07-23T09:13:35;16.20;99.90
16160;DHT22;8185;57.818;15.224;2022-07-23T09:16:06;16.40;99.90
16160;DHT22;8185;57.818;15.224;2022-07-23T09:18:42;16.80;99.90
16160;DHT22;8185;57.818;15.224;2022-07-23T09:21:13;16.90;99.90
16160;DHT22;8185;57.818;15.224;2022-07-23T09:23:44;17.10;99.90
16160;DHT22;8185;57.818;15.224;2022-07-23T09:26:33;17.10;99.90
16160;DHT22;8185;57.818;15.224;2022-07-23T09:29:07;17.10;99.90
16160;DHT22;8185;57.818;15.224;2022-07-23T09:31:43;16.90;99.90
16160;DHT22;8185;57.818;15.224;2022-07-23T09:34:19;17.10;99.90
16160;DHT22;8185;57.818;15.224;2022-07-23T09:36:47;17.30;99.90
16160;DHT22;8185;57.818;15.224;2022-07-23T09:39:24;17.40;99.90
16160;DHT22;8185;57.818;15.224;2022-07-23T09:41:52;17.60;99.90
16160;DHT22;8185;57.818;15.224;2022-07-23T09:44:21;17.20;99.90
16160;DHT22;8185;57.818;15.224;2022-07-23T09:46:50;17.20;99.90
16160;DHT22;8185;57.818;15.224;2022-07-23T09:49:19;17.40;99.90
16160;DHT22;8185;57.818;15.224;2022-07-23T09:51:50;17.40;99.90
16160;DHT22;8185;57.818;15.224;2022-07-23T09:54:28;17.20;99.90
16160;DHT22;8185;57.818;15.224;2022-07-23T09:56:58;17.10;99.90
16160;DHT22;8185;57.818;15.224;2022-07-23T09:59:27;17.00;99.90
16160;DHT22;8185;57.818;15.224;2022-07-23T10:01:55;16.90;99.90
16160;DHT22;8185;57.818;15.224;2022-07-23T10:04:26;16.90;99.90
16160;DHT22;8185;57.818;15.224;2022-07-23T10:06:57;17.00;99.90
16160;DHT22;8185;57.818;15.224;2022-07-23T10:09:28;16.80;99.90
16160;DHT22;8185;57.818;15.224;2022-07-23T10:11:58;16.70;99.90
16160;DHT22;8185;57.818;15.224;2022-07-23T10:14:34;16.80;99.90
16160;DHT22;8185;57.818;15.224;2022-07-23T10:17:01;16.90;99.90
16160;DHT22;8185;57.818;15.224;2022-07-23T10:19:29;16.90;99.90
16160;DHT22;8185;57.818;15.224;2022-07-23T10:21:59;16.80;99.90
16160;DHT22;8185;57.818;15.224;2022-07-23T10:24:43;16.80;99.90
16160;DHT22;8185;57.818;15.224;2022-07-23T10:30:20;16.90;99.90
16160;DHT22;8185;57.818;15.224;2022-07-23T10:33:00;17.00;99.90
16160;DHT22;8185;57.818;15.224;2022-07-23T10:35:36;17.00;99.90
16160;DHT22;8185;57.818;15.224;2022-07-23T10:38:12;16.80;99.90
16160;DHT22;8185;57.818;15.224;2022-07-23T10:40:55;16.60;99.90
16160;DHT22;8185;57.818;15.224;2022-07-23T10:43:23;16.60;99.90
16160;DHT22;8185;57.818;15.224;2022-07-23T10:45:51;16.50;99.90
16160;DHT22;8185;57.818;15.224;2022-07-23T10:48:20;16.20;99.90
16160;DHT22;8185;57.818;15.224;2022-07-23T10:51:08;16.10;99.90
16160;DHT22;8185;57.818;15.224;2022-07-23T10:53:59;16.20;99.90
16160;DHT22;8185;57.818;15.224;2022-07-23T10:56:51;16.30;99.90
16160;DHT22;8185;57.818;15.224;2022-07-23T10:59:46;16.50;99.90
16160;DHT22;8185;57.818;15.224;2022-07-23T11:02:35;16.50;99.90
16160;DHT22;8185;57.818;15.224;2022-07-23T11:05:06;16.60;99.90
16160;DHT22;8185;57.818;15.224;2022-07-23T11:07:34;16.50;99.90
16160;DHT22;8185;57.818;15.224;2022-07-23T11:10:02;16.70;99.90
16160;DHT22;8185;57.818;15.224;2022-07-23T11:12:34;16.70;99.90
16160;DHT22;8185;57.818;15.224;2022-07-23T11:15:05;16.70;99.90
16160;DHT22;8185;57.818;15.224;2022-07-23T11:17:35;16.60;99.90
16160;DHT22;8185;57.818;15.224;2022-07-23T11:20:20;16.50;99.90
16160;DHT22;8185;57.818;15.224;2022-07-23T11:22:50;16.60;99.90
16160;DHT22;8185;57.818;15.224;2022-07-23T11:25:36;16.60;99.90
16160;DHT22;8185;57.818;15.224;2022-07-23T11:28:12;16.90;99.90
16160;DHT22;8185;57.818;15.224;2022-07-23T11:30:42;17.30;99.90
16160;DHT22;8185;57.818;15.224;2022-07-23T11:33:18;17.70;99.90
16160;DHT22;8185;57.818;15.224;2022-07-23T11:35:47;18.30;99.90
16160;DHT22;8185;57.818;15.224;2022-07-23T11:38:16;18.10;99.90
16160;DHT22;8185;57.818;15.224;2022-07-23T11:40:47;17.70;99.90
16160;DHT22;8185;57.818;15.224;2022-07-23T11:43:16;17.70;99.90
16160;DHT22;8185;57.818;15.224;2022-07-23T11:45:45;17.30;99.90
16160;DHT22;8185;57.818;15.224;2022-07-23T11:48:17;17.10;99.90
16160;DHT22;8185;57.818;15.224;2022-07-23T11:50:45;17.30;99.90
16160;DHT22;8185;57.818;15.224;2022-07-23T11:53:12;17.40;99.90
16160;DHT22;8185;57.818;15.224;2022-07-23T11:55:41;17.30;99.90
16160;DHT22;8185;57.818;15.224;2022-07-23T11:58:08;17.10;99.90
16160;DHT22;8185;57.818;15.224;2022-07-23T12:00:41;16.70;99.90
16160;DHT22;8185;57.818;15.224;2022-07-23T12:03:08;16.90;99.90
16160;DHT22;8185;57.818;15.224;2022-07-23T12:05:37;16.90;99.90
16160;DHT22;8185;57.818;15.224;2022-07-23T12:08:07;17.20;99.90
16160;DHT22;8185;57.818;15.224;2022-07-23T12:10:36;17.20;99.90
16160;DHT22;8185;57.818;15.224;2022-07-23T12:13:05;17.40;99.90
16160;DHT22;8185;57.818;15.224;2022-07-23T12:15:34;17.50;99.90
16160;DHT22;8185;57.818;15.224;2022-07-23T12:18:06;17.20;99.90
16160;DHT22;8185;57.818;15.224;2022-07-23T12:20:35;17.00;99.90
16160;DHT22;8185;57.818;15.224;2022-07-23T12:23:05;17.10;99.90
16160;DHT22;8185;57.818;15.224;2022-07-23T12:25:33;16.90;99.90
16160;DHT22;8185;57.818;15.224;2022-07-23T12:28:04;17.10;99.90
16160;DHT22;8185;57.818;15.224;2022-07-23T12:30:34;17.20;99.90
16160;DHT22;8185;57.818;15.224;2022-07-23T12:33:01;17.10;99.90
16160;DHT22;8185;57.818;15.224;2022-07-23T12:35:39;16.80;99.90
16160;DHT22;8185;57.818;15.224;2022-07-23T12:38:09;16.80;99.90
16160;DHT22;8185;57.818;15.224;2022-07-23T12:40:41;16.90;99.90
16160;DHT22;8185;57.818;15.224;2022-07-23T12:43:10;16.90;99.90
16160;DHT22;8185;57.818;15.224;2022-07-23T12:45:46;16.80;99.90
16160;DHT22;8185;57.818;15.224;2022-07-23T12:48:20;16.50;99.90
16160;DHT22;8185;57.818;15.224;2022-07-23T12:50:52;16.40;99.90
16160;DHT22;8185;57.818;15.224;2022-07-23T12:53:21;16.50;99.90
16160;DHT22;8185;57.818;15.224;2022-07-23T12:55:50;16.60;99.90
16160;DHT22;8185;57.818;15.224;2022-07-23T12:58:19;16.70;99.90
16160;DHT22;8185;57.818;15.224;2022-07-23T13:01:05;16.80;99.90
16160;DHT22;8185;57.818;15.224;2022-07-23T13:03:35;16.90;99.90
16160;DHT22;8185;57.818;15.224;2022-07-23T13:06:06;16.70;99.90
16160;DHT22;8185;57.818;15.224;2022-07-23T13:08:34;16.60;99.90
16160;DHT22;8185;57.818;15.224;2022-07-23T13:11:03;16.70;99.90
16160;DHT22;8185;57.818;15.224;2022-07-23T13:13:33;16.70;99.90
16160;DHT22;8185;57.818;15.224;2022-07-23T13:16:01;16.60;99.90
16160;DHT22;8185;57.818;15.224;2022-07-23T13:18:29;16.60;99.90
16160;DHT22;8185;57.818;15.224;2022-07-23T13:20:56;17.00;99.90
16160;DHT22;8185;57.818;15.224;2022-07-23T13:23:25;17.10;99.90
16160;DHT22;8185;57.818;15.224;2022-07-23T13:25:53;16.90;99.90
16160;DHT22;8185;57.818;15.224;2022-07-23T13:28:21;17.20;99.90
16160;DHT22;8185;57.818;15.224;2022-07-23T13:30:50;17.10;99.90
16160;DHT22;8185;57.818;15.224;2022-07-23T13:33:18;17.00;99.90
16160;DHT22;8185;57.818;15.224;2022-07-23T13:35:46;17.10;99.90
16160;DHT22;8185;57.818;15.224;2022-07-23T13:38:13;17.10;99.90
16160;DHT22;8185;57.818;15.224;2022-07-23T13:40:45;17.10;99.90
16160;DHT22;8185;57.818;15.224;2022-07-23T13:43:14;17.10;99.90
16160;DHT22;8185;57.818;15.224;2022-07-23T13:45:43;16.80;99.90
16160;DHT22;8185;57.818;15.224;2022-07-23T13:48:11;16.90;99.90
16160;DHT22;8185;57.818;15.224;2022-07-23T13:50:39;16.70;99.90
16160;DHT22;8185;57.818;15.224;2022-07-23T13:53:08;16.70;99.90
16160;DHT22;8185;57.818;15.224;2022-07-23T13:55:37;16.70;99.90
16160;DHT22;8185;57.818;15.224;2022-07-23T13:58:08;16.60;99.90
16160;DHT22;8185;57.818;15.224;2022-07-23T14:00:38;16.60;99.90
16160;DHT22;8185;57.818;15.224;2022-07-23T14:03:06;16.60;99.90
16160;DHT22;8185;57.818;15.224;2022-07-23T14:05:33;16.60;99.90
16160;DHT22;8185;57.818;15.224;2022-07-23T14:08:01;16.50;99.90
16160;DHT22;8185;57.818;15.224;2022-07-23T14:10:29;16.40;99.90
16160;DHT22;8185;57.818;15.224;2022-07-23T14:12:56;16.30;99.90
16160;DHT22;8185;57.818;15.224;2022-07-23T14:15:27;16.20;99.90
16160;DHT22;8185;57.818;15.224;2022-07-23T14:17:55;16.00;99.90
16160;DHT22;8185;57.818;15.224;2022-07-23T14:20:23;16.00;99.90
16160;DHT22;8185;57.818;15.224;2022-07-23T14:22:51;15.90;99.90
16160;DHT22;8185;57.818;15.224;2022-07-23T14:25:19;15.80;99.90
16160;DHT22;8185;57.818;15.224;2022-07-23T14:27:46;15.70;99.90
16160;DHT22;8185;57.818;15.224;2022-07-23T14:30:13;15.60;99.90
16160;DHT22;8185;57.818;15.224;2022-07-23T14:32:43;15.70;99.90
16160;DHT22;8185;57.818;15.224;2022-07-23T14:35:10;15.70;99.90
16160;DHT22;8185;57.818;15.224;2022-07-23T14:37:39;15.70;99.90
16160;DHT22;8185;57.818;15.224;2022-07-23T14:40:07;15.80;99.90
16160;DHT22;8185;57.818;15.224;2022-07-23T14:42:34;16.00;99.90
16160;DHT22;8185;57.818;15.224;2022-07-23T14:45:02;16.10;99.90
16160;DHT22;8185;57.818;15.224;2022-07-23T14:47:31;16.30;99.90
16160;DHT22;8185;57.818;15.224;2022-07-23T14:49:59;16.20;99.90
16160;DHT22;8185;57.818;15.224;2022-07-23T14:52:26;16.30;99.90
16160;DHT22;8185;57.818;15.224;2022-07-23T14:54:54;16.40;99.90
16160;DHT22;8185;57.818;15.224;2022-07-23T14:57:21;16.30;99.90
16160;DHT22;8185;57.818;15.224;2022-07-23T14:59:48;16.50;99.90
16160;DHT22;8185;57.818;15.224;2022-07-23T15:02:15;16.60;99.90
16160;DHT22;8185;57.818;15.224;2022-07-23T15:04:43;16.50;99.90
16160;DHT22;8185;57.818;15.224;2022-07-23T15:07:11;16.40;99.90
16160;DHT22;8185;57.818;15.224;2022-07-23T15:09:39;16.30;99.90
16160;DHT22;8185;57.818;15.224;2022-07-23T15:12:06;16.30;99.90
16160;DHT22;8185;57.818;15.224;2022-07-23T15:14:34;16.30;99.90
16160;DHT22;8185;57.818;15.224;2022-07-23T15:17:01;16.30;99.90
16160;DHT22;8185;57.818;15.224;2022-07-23T15:19:28;16.30;99.90
16160;DHT22;8185;57.818;15.224;2022-07-23T15:21:55;16.30;99.90
16160;DHT22;8185;57.818;15.224;2022-07-23T15:24:26;16.30;99.90
16160;DHT22;8185;57.818;15.224;2022-07-23T15:26:54;16.30;99.90
16160;DHT22;8185;57.818;15.224;2022-07-23T15:29:21;16.20;99.90
16160;DHT22;8185;57.818;15.224;2022-07-23T15:31:49;16.20;99.90
16160;DHT22;8185;57.818;15.224;2022-07-23T15:34:16;16.20;99.90
16160;DHT22;8185;57.818;15.224;2022-07-23T15:36:44;16.20;99.90
16160;DHT22;8185;57.818;15.224;2022-07-23T15:39:11;16.10;99.90
16160;DHT22;8185;57.818;15.224;2022-07-23T15:41:40;16.00;99.90
16160;DHT22;8185;57.818;15.224;2022-07-23T15:44:07;16.00;99.90